createdAt,value
2022-10-18T00:00:54.519Z,101767.00
2022-10-18T00:03:23.090Z,101762.00
2022-10-18T00:05:51.171Z,101762.00
2022-10-18T00:08:19.958Z,101771.00
2022-10-18T00:10:47.867Z,101764.00
2022-10-18T00:13:17.105Z,101759.00
2022-10-18T00:15:50.029Z,101750.00
2022-10-18T00:18:18.002Z,101760.00
2022-10-18T00:20:45.904Z,101762.00
2022-10-18T00:23:13.905Z,101771.00
2022-10-18T00:25:41.682Z,101766.00
2022-10-18T00:28:09.439Z,101764.00
2022-10-18T00:30:38.632Z,101769.00
2022-10-18T00:33:06.411Z,101771.00
2022-10-18T00:35:36.151Z,101773.00
2022-10-18T00:38:03.992Z,101789.00
2022-10-18T00:40:31.758Z,101779.00
2022-10-18T00:42:59.509Z,101776.00
2022-10-18T00:45:27.986Z,101786.00
2022-10-18T00:48:00.456Z,101798.00
2022-10-18T00:50:31.179Z,101795.00
2022-10-18T00:53:02.114Z,101793.00
2022-10-18T00:55:32.815Z,101791.00
2022-10-18T00:58:02.004Z,101793.00
2022-10-18T01:00:29.812Z,101785.00
2022-10-18T01:02:59.961Z,101763.00
2022-10-18T01:05:27.978Z,101786.00
2022-10-18T01:08:16.139Z,101792.00
2022-10-18T01:10:49.078Z,101797.00
2022-10-18T01:13:29.080Z,101793.00
2022-10-18T01:16:01.369Z,101795.00
2022-10-18T01:18:37.023Z,101796.00
2022-10-18T01:21:12.341Z,101792.00
2022-10-18T01:24:08.098Z,101795.00
2022-10-18T01:26:53.866Z,101801.00
2022-10-18T01:29:31.076Z,101787.00
2022-10-18T01:32:03.175Z,101794.00
2022-10-18T01:34:36.294Z,101784.00
2022-10-18T01:37:07.867Z,101772.00
2022-10-18T01:39:38.640Z,101767.00
2022-10-18T01:42:10.369Z,101764.00
2022-10-18T01:44:41.982Z,101766.00
2022-10-18T01:47:13.462Z,101760.00
2022-10-18T01:49:41.253Z,101757.00
2022-10-18T01:52:11.503Z,101765.00
2022-10-18T01:54:42.150Z,101757.00
2022-10-18T01:57:16.302Z,101754.00
2022-10-18T01:59:52.709Z,101757.00
2022-10-18T02:02:36.741Z,101751.00
2022-10-18T02:05:15.866Z,101754.00
2022-10-18T02:08:00.100Z,101753.00
2022-10-18T02:10:42.527Z,101747.00
2022-10-18T02:13:12.531Z,101744.00
2022-10-18T02:15:42.657Z,101752.00
2022-10-18T02:18:18.237Z,101747.00
2022-10-18T02:20:47.873Z,101744.00
2022-10-18T02:23:17.557Z,101743.00
2022-10-18T02:25:45.431Z,101745.00
2022-10-18T02:28:13.411Z,101750.00
2022-10-18T02:30:48.352Z,101748.00
2022-10-18T02:33:22.233Z,101744.00
2022-10-18T02:35:54.434Z,101756.00
2022-10-18T02:38:25.798Z,101736.00
2022-10-18T02:40:54.086Z,101732.00
2022-10-18T02:43:24.848Z,101734.00
2022-10-18T02:45:52.892Z,101729.00
2022-10-18T02:48:22.034Z,101725.00
2022-10-18T02:50:49.825Z,101718.00
2022-10-18T02:53:17.613Z,101729.00
2022-10-18T02:55:45.382Z,101723.00
2022-10-18T02:58:14.687Z,101742.00
2022-10-18T03:00:42.454Z,101728.00
2022-10-18T03:03:10.289Z,101724.00
2022-10-18T03:05:39.462Z,101724.00
2022-10-18T03:08:07.205Z,101716.00
2022-10-18T03:10:35.030Z,101717.00
2022-10-18T03:13:02.826Z,101725.00
2022-10-18T03:15:30.572Z,101722.00
2022-10-18T03:17:58.362Z,101726.00
2022-10-18T03:20:26.167Z,101724.00
2022-10-18T03:22:55.297Z,101717.00
2022-10-18T03:25:23.173Z,101733.00
2022-10-18T03:27:50.941Z,101726.00
2022-10-18T03:30:18.852Z,101722.00
2022-10-18T03:32:46.636Z,101713.00
2022-10-18T03:35:14.431Z,101721.00
2022-10-18T03:37:42.198Z,101728.00
2022-10-18T03:40:12.111Z,101722.00
2022-10-18T03:42:39.873Z,101727.00
2022-10-18T03:45:08.842Z,101717.00
2022-10-18T03:47:36.660Z,101719.00
2022-10-18T03:50:04.886Z,101701.00
2022-10-18T03:52:33.210Z,101703.00
2022-10-18T03:55:01.160Z,101691.00
2022-10-18T03:57:30.300Z,101704.00
2022-10-18T03:59:58.095Z,101700.00
2022-10-18T04:02:27.018Z,101701.00
2022-10-18T04:04:54.842Z,101703.00
2022-10-18T04:07:22.648Z,101707.00
2022-10-18T04:09:50.406Z,101708.00
2022-10-18T04:12:18.177Z,101704.00
2022-10-18T04:14:47.392Z,101700.00
2022-10-18T04:17:15.185Z,101696.00
2022-10-18T04:19:42.918Z,101706.00
2022-10-18T04:22:11.988Z,101711.00
2022-10-18T04:24:40.097Z,101697.00
2022-10-18T04:27:08.655Z,101699.00
2022-10-18T04:29:36.456Z,101717.00
2022-10-18T04:32:05.858Z,101717.00
2022-10-18T04:34:33.731Z,101713.00
2022-10-18T04:37:01.663Z,101716.00
2022-10-18T04:39:29.499Z,101714.00
2022-10-18T04:41:57.416Z,101718.00
2022-10-18T04:44:25.188Z,101713.00
2022-10-18T04:46:53.068Z,101707.00
2022-10-18T04:49:22.305Z,101713.00
2022-10-18T04:51:50.110Z,101705.00
2022-10-18T04:54:18.033Z,101707.00
2022-10-18T04:56:45.841Z,101705.00
2022-10-18T04:59:13.592Z,101704.00
2022-10-18T05:01:41.484Z,101711.00
2022-10-18T05:04:10.149Z,101714.00
2022-10-18T05:06:39.342Z,101699.00
2022-10-18T05:09:07.315Z,101714.00
2022-10-18T05:11:35.075Z,101715.00
2022-10-18T05:14:02.876Z,101712.00
2022-10-18T05:16:31.951Z,101713.00
2022-10-18T05:18:59.754Z,101725.00
2022-10-18T05:21:27.519Z,101714.00
2022-10-18T05:23:57.909Z,101726.00
2022-10-18T05:26:25.707Z,101726.00
2022-10-18T05:28:53.557Z,101724.00
2022-10-18T05:31:21.382Z,101724.00
2022-10-18T05:33:49.165Z,101734.00
2022-10-18T05:36:16.926Z,101736.00
2022-10-18T05:38:45.553Z,101736.00
2022-10-18T05:41:15.203Z,101737.00
2022-10-18T05:43:42.995Z,101742.00
2022-10-18T05:46:15.015Z,101744.00
2022-10-18T05:48:43.309Z,101743.00
2022-10-18T05:51:11.144Z,101742.00
2022-10-18T05:53:38.891Z,101743.00
2022-10-18T05:56:07.742Z,101726.00
2022-10-18T05:58:36.940Z,101743.00
2022-10-18T06:01:06.353Z,101744.00
2022-10-18T06:03:34.497Z,101746.00
2022-10-18T06:06:02.592Z,101754.00
2022-10-18T06:08:30.449Z,101756.00
2022-10-18T06:10:58.220Z,101755.00
2022-10-18T06:13:25.991Z,101745.00
2022-10-18T06:15:58.419Z,101760.00
2022-10-18T06:18:26.308Z,101753.00
2022-10-18T06:20:57.989Z,101762.00
2022-10-18T06:23:25.928Z,101770.00
2022-10-18T06:25:53.799Z,101759.00
2022-10-18T06:28:21.582Z,101773.00
2022-10-18T06:30:49.349Z,101768.00
2022-10-18T06:33:19.138Z,101777.00
2022-10-18T06:35:55.538Z,101771.00
2022-10-18T06:38:23.308Z,101771.00
2022-10-18T06:40:51.248Z,101780.00
2022-10-18T06:43:21.495Z,101773.00
2022-10-18T06:45:49.664Z,101784.00
2022-10-18T06:50:52.830Z,101789.00
2022-10-18T06:53:20.606Z,101780.00
2022-10-18T06:55:48.373Z,101786.00
2022-10-18T06:58:16.169Z,101779.00
2022-10-18T07:00:45.226Z,101787.00
2022-10-18T07:03:13.059Z,101781.00
2022-10-18T07:05:42.957Z,101787.00
2022-10-18T07:08:10.825Z,101786.00
2022-10-18T07:10:39.047Z,101793.00
2022-10-18T07:13:31.491Z,101794.00
2022-10-18T07:16:05.818Z,101790.00
2022-10-18T07:18:35.525Z,101785.00
2022-10-18T07:21:06.260Z,101780.00
2022-10-18T07:23:35.073Z,101785.00
2022-10-18T07:26:03.496Z,101783.00
2022-10-18T07:28:31.782Z,101787.00
2022-10-18T07:31:06.207Z,101785.00
2022-10-18T07:33:34.306Z,101789.00
2022-10-18T07:36:03.058Z,101781.00
2022-10-18T07:38:32.282Z,101790.00
2022-10-18T07:41:02.063Z,101788.00
2022-10-18T07:43:30.336Z,101785.00
2022-10-18T07:46:00.195Z,101795.00
2022-10-18T07:48:28.713Z,101783.00
2022-10-18T07:50:59.789Z,101788.00
2022-10-18T07:53:27.917Z,101776.00
2022-10-18T07:56:01.494Z,101790.00
2022-10-18T07:58:32.219Z,101791.00
2022-10-18T08:01:03.880Z,101790.00
2022-10-18T08:03:31.876Z,101786.00
2022-10-18T08:06:00.153Z,101782.00
2022-10-18T08:08:28.580Z,101778.00
2022-10-18T08:10:56.825Z,101773.00
2022-10-18T08:13:26.020Z,101771.00
2022-10-18T08:16:00.896Z,101776.00
2022-10-18T08:18:28.747Z,101785.00
2022-10-18T08:20:56.538Z,101782.00
2022-10-18T08:23:24.331Z,101776.00
2022-10-18T08:25:52.373Z,101772.00
2022-10-18T08:28:20.219Z,101781.00
2022-10-18T08:30:49.404Z,101777.00
2022-10-18T08:33:17.179Z,101788.00
2022-10-18T08:35:44.951Z,101785.00
2022-10-18T08:38:16.579Z,101788.00
2022-10-18T08:40:47.270Z,101787.00
2022-10-18T08:43:23.580Z,101783.00
2022-10-18T08:45:55.608Z,101786.00
2022-10-18T08:48:28.569Z,101787.00
2022-10-18T08:50:58.353Z,101794.00
2022-10-18T08:53:30.855Z,101789.00
2022-10-18T08:56:02.079Z,101785.00
2022-10-18T08:58:33.508Z,101791.00
2022-10-18T09:01:19.191Z,101794.00
2022-10-18T09:04:01.858Z,101791.00
2022-10-18T09:06:33.970Z,101809.00
2022-10-18T09:09:20.240Z,101803.00
2022-10-18T09:15:41.854Z,101820.00
2022-10-18T09:18:22.333Z,101823.00
2022-10-18T09:24:41.172Z,101825.00
2022-10-18T09:27:17.015Z,101831.00
2022-10-18T09:30:03.348Z,101822.00
2022-10-18T09:32:43.545Z,101828.00
2022-10-18T09:35:18.051Z,101827.00
2022-10-18T09:37:46.997Z,101837.00
2022-10-18T09:40:19.430Z,101839.00
2022-10-18T09:42:56.431Z,101844.00
2022-10-18T09:45:28.840Z,101836.00
2022-10-18T09:48:06.861Z,101836.00
2022-10-18T09:50:41.175Z,101831.00
2022-10-18T09:53:18.902Z,101829.00
2022-10-18T09:55:58.105Z,101832.00
2022-10-18T09:58:30.555Z,101836.00
2022-10-18T10:00:58.801Z,101842.00
2022-10-18T10:03:27.023Z,101854.00
2022-10-18T10:06:17.062Z,101847.00
2022-10-18T10:08:51.129Z,101839.00
2022-10-18T10:11:32.786Z,101833.00
2022-10-18T10:14:09.470Z,101834.00
2022-10-18T10:16:47.756Z,101840.00
2022-10-18T10:19:19.169Z,101843.00
2022-10-18T10:21:50.246Z,101846.00
2022-10-18T10:24:27.401Z,101840.00
2022-10-18T10:27:03.717Z,101838.00
2022-10-18T10:29:56.998Z,101841.00
2022-10-18T10:32:30.886Z,101851.00
2022-10-18T10:34:59.495Z,101850.00
2022-10-18T10:37:32.024Z,101848.00
2022-10-18T10:40:19.608Z,101842.00
2022-10-18T10:43:32.997Z,101840.00
2022-10-18T10:46:03.715Z,101837.00
2022-10-18T10:48:34.598Z,101843.00
2022-10-18T10:51:07.971Z,101828.00
2022-10-18T10:53:47.027Z,101822.00
2022-10-18T10:56:19.525Z,101830.00
2022-10-18T10:58:47.787Z,101829.00
2022-10-18T11:01:32.090Z,101830.00
2022-10-18T11:04:02.387Z,101830.00
2022-10-18T11:06:41.462Z,101834.00
2022-10-18T11:09:21.542Z,101829.00
2022-10-18T11:12:00.682Z,101830.00
2022-10-18T11:14:32.657Z,101824.00
2022-10-18T11:17:08.964Z,101824.00
2022-10-18T11:19:43.805Z,101823.00
2022-10-18T11:22:17.154Z,101816.00
2022-10-18T11:24:46.325Z,101829.00
2022-10-18T11:27:20.751Z,101827.00
2022-10-18T11:30:02.164Z,101820.00
2022-10-18T11:32:40.103Z,101817.00
2022-10-18T11:35:25.967Z,101824.00
2022-10-18T11:38:06.921Z,101812.00
2022-10-18T11:40:49.450Z,101813.00
2022-10-18T11:43:30.165Z,101815.00
2022-10-18T11:46:08.127Z,101807.00
2022-10-18T11:49:20.108Z,101799.00
2022-10-18T11:52:08.789Z,101798.00
2022-10-18T11:54:53.357Z,101805.00
2022-10-18T11:57:35.030Z,101805.00
2022-10-18T12:00:17.198Z,101806.00
2022-10-18T12:03:03.142Z,101786.00
2022-10-18T12:05:32.822Z,101790.00
2022-10-18T12:08:04.976Z,101811.00
2022-10-18T12:10:52.753Z,101804.00
2022-10-18T12:13:34.027Z,101817.00
2022-10-18T12:16:05.086Z,101800.00
2022-10-18T12:18:34.078Z,101801.00
2022-10-18T12:21:02.148Z,101810.00
2022-10-18T12:23:39.003Z,101802.00
2022-10-18T12:26:09.206Z,101799.00
2022-10-18T12:28:47.953Z,101790.00
2022-10-18T12:31:23.203Z,101795.00
2022-10-18T12:33:54.340Z,101797.00
2022-10-18T12:36:42.559Z,101796.00
2022-10-18T12:39:32.468Z,101801.00
2022-10-18T12:42:19.791Z,101792.00
2022-10-18T12:44:49.160Z,101797.00
2022-10-18T12:47:24.404Z,101783.00
2022-10-18T12:50:00.012Z,101780.00
2022-10-18T12:52:29.876Z,101777.00
2022-10-18T12:55:08.340Z,101789.00
2022-10-18T12:58:07.356Z,101781.00
2022-10-18T13:01:01.275Z,101783.00
2022-10-18T13:04:00.133Z,101779.00
2022-10-18T13:07:07.852Z,101784.00
2022-10-18T13:09:36.976Z,101790.00
2022-10-18T13:12:47.135Z,101789.00
2022-10-18T13:15:34.404Z,101791.00
2022-10-18T13:18:15.659Z,101794.00
2022-10-18T13:20:47.794Z,101796.00
2022-10-18T13:23:38.213Z,101803.00
2022-10-18T13:26:17.494Z,101791.00
2022-10-18T13:28:54.016Z,101801.00
2022-10-18T13:31:27.079Z,101808.00
2022-10-18T13:33:56.385Z,101797.00
2022-10-18T13:36:27.117Z,101796.00
2022-10-18T13:39:20.114Z,101803.00
2022-10-18T13:42:20.093Z,101809.00
2022-10-18T13:44:47.911Z,101808.00
2022-10-18T13:47:17.415Z,101810.00
2022-10-18T13:53:31.938Z,101800.00
2022-10-18T13:56:16.076Z,101815.00
2022-10-18T13:59:06.130Z,101812.00
2022-10-18T14:01:53.282Z,101824.00
2022-10-18T14:04:47.873Z,101824.00
2022-10-18T14:07:19.163Z,101830.00
2022-10-18T14:09:54.946Z,101823.00
2022-10-18T14:12:30.299Z,101827.00
2022-10-18T14:15:04.413Z,101825.00
2022-10-18T14:20:27.143Z,101830.00
2022-10-18T14:23:03.631Z,101836.00
2022-10-18T14:25:33.843Z,101834.00
2022-10-18T14:28:11.397Z,101837.00
2022-10-18T14:30:53.673Z,101829.00
2022-10-18T14:33:31.326Z,101837.00
2022-10-18T14:36:02.315Z,101851.00
2022-10-18T14:38:30.794Z,101841.00
2022-10-18T14:41:17.267Z,101841.00
2022-10-18T14:43:48.093Z,101842.00
2022-10-18T14:46:22.325Z,101846.00
2022-10-18T14:48:58.067Z,101832.00
2022-10-18T14:51:26.386Z,101842.00
2022-10-18T14:53:55.190Z,101840.00
2022-10-18T14:56:27.250Z,101831.00
2022-10-18T14:58:58.072Z,101842.00
2022-10-18T15:01:30.210Z,101863.00
2022-10-18T15:03:59.780Z,101848.00
2022-10-18T15:06:28.487Z,101853.00
2022-10-18T15:08:58.943Z,101849.00
2022-10-18T15:11:28.166Z,101852.00
2022-10-18T15:14:02.977Z,101860.00
2022-10-18T15:16:32.728Z,101847.00
2022-10-18T15:19:02.998Z,101849.00
2022-10-18T15:21:31.143Z,101861.00
2022-10-18T15:24:20.576Z,101855.00
2022-10-18T15:26:50.613Z,101855.00
2022-10-18T15:29:21.781Z,101852.00
2022-10-18T15:31:51.198Z,101844.00
2022-10-18T15:34:21.326Z,101857.00
2022-10-18T15:36:50.578Z,101849.00
2022-10-18T15:39:21.210Z,101843.00
2022-10-18T15:41:51.000Z,101854.00
2022-10-18T15:44:26.353Z,101855.00
2022-10-18T15:46:57.278Z,101854.00
2022-10-18T15:50:01.432Z,101860.00
2022-10-18T15:52:38.558Z,101859.00
2022-10-18T15:55:47.437Z,101869.00
2022-10-18T15:58:20.008Z,101875.00
2022-10-18T16:00:50.726Z,101872.00
2022-10-18T16:03:21.719Z,101871.00
2022-10-18T16:05:49.936Z,101879.00
2022-10-18T16:08:23.061Z,101879.00
2022-10-18T16:10:51.435Z,101872.00
2022-10-18T16:13:20.573Z,101880.00
2022-10-18T16:15:49.760Z,101877.00
2022-10-18T16:18:19.946Z,101887.00
2022-10-18T16:20:48.888Z,101885.00
2022-10-18T16:23:21.973Z,101893.00
2022-10-18T16:25:50.260Z,101882.00
2022-10-18T16:28:19.824Z,101887.00
2022-10-18T16:30:55.389Z,101887.00
2022-10-18T16:33:23.267Z,101902.00
2022-10-18T16:35:51.117Z,101898.00
2022-10-18T16:38:29.910Z,101898.00
2022-10-18T16:41:00.942Z,101897.00
2022-10-18T16:43:28.798Z,101902.00
2022-10-18T16:45:57.989Z,101909.00
2022-10-18T16:48:26.198Z,101916.00
2022-10-18T16:50:55.658Z,101899.00
2022-10-18T16:53:25.165Z,101908.00
2022-10-18T16:55:55.480Z,101920.00
2022-10-18T17:01:00.348Z,101921.00
2022-10-18T17:03:29.867Z,101924.00
2022-10-18T17:05:57.663Z,101932.00
2022-10-18T17:08:27.469Z,101926.00
2022-10-18T17:10:57.991Z,101930.00
2022-10-18T17:13:26.892Z,101930.00
2022-10-18T17:15:55.002Z,101923.00
2022-10-18T17:18:27.541Z,101946.00
2022-10-18T17:20:56.524Z,101940.00
2022-10-18T17:23:24.377Z,101946.00
2022-10-18T17:26:06.928Z,101944.00
2022-10-18T17:28:40.452Z,101956.00
2022-10-18T17:31:08.568Z,101950.00
2022-10-18T17:33:38.073Z,101949.00
2022-10-18T17:36:06.072Z,101963.00
2022-10-18T17:38:34.500Z,101942.00
2022-10-18T17:41:07.656Z,101957.00
2022-10-18T17:43:35.485Z,101959.00
2022-10-18T17:46:05.158Z,101965.00
2022-10-18T17:48:32.944Z,101971.00
2022-10-18T17:51:06.939Z,101974.00
2022-10-18T17:53:34.897Z,101966.00
2022-10-18T17:56:04.480Z,101980.00
2022-10-18T17:58:32.824Z,101981.00
2022-10-18T18:01:10.164Z,101984.00
2022-10-18T18:03:38.320Z,101988.00
2022-10-18T18:06:19.510Z,101991.00
2022-10-18T18:08:48.371Z,101984.00
2022-10-18T18:11:17.274Z,101988.00
2022-10-18T18:13:45.062Z,101973.00
2022-10-18T18:16:15.144Z,101973.00
2022-10-18T18:18:43.729Z,101978.00
2022-10-18T18:21:12.283Z,101962.00
2022-10-18T18:23:41.526Z,101982.00
2022-10-18T18:26:09.442Z,101983.00
2022-10-18T18:28:37.726Z,101975.00
2022-10-18T18:31:10.283Z,101975.00
2022-10-18T18:33:39.167Z,101987.00
2022-10-18T18:36:07.909Z,101988.00
2022-10-18T18:38:37.638Z,101992.00
2022-10-18T18:41:12.038Z,101986.00
2022-10-18T18:43:43.309Z,101982.00
2022-10-18T18:46:12.568Z,101991.00
2022-10-18T18:48:41.060Z,101991.00
2022-10-18T18:51:12.980Z,101979.00
2022-10-18T18:53:41.371Z,101990.00
2022-10-18T18:56:13.949Z,101984.00
2022-10-18T18:58:44.057Z,101975.00
2022-10-18T19:01:13.764Z,101980.00
2022-10-18T19:03:43.262Z,101984.00
2022-10-18T19:06:14.228Z,101958.00
2022-10-18T19:08:44.634Z,101981.00
2022-10-18T19:11:16.798Z,101968.00
2022-10-18T19:13:45.172Z,101965.00
2022-10-18T19:16:21.835Z,101978.00
2022-10-18T19:18:58.691Z,101977.00
2022-10-18T19:21:29.458Z,101976.00
2022-10-18T19:23:57.916Z,101967.00
2022-10-18T19:26:37.187Z,101972.00
2022-10-18T19:29:08.946Z,101979.00
2022-10-18T19:31:36.870Z,101978.00
2022-10-18T19:34:07.231Z,101992.00
2022-10-18T19:36:36.074Z,101996.00
2022-10-18T19:39:04.267Z,102002.00
2022-10-18T19:41:33.513Z,101994.00
2022-10-18T19:44:01.420Z,101993.00
2022-10-18T19:46:29.256Z,102000.00
2022-10-18T19:48:57.037Z,102004.00
2022-10-18T19:51:27.866Z,101994.00
2022-10-18T19:53:57.411Z,102010.00
2022-10-18T19:56:26.499Z,102016.00
2022-10-18T19:58:56.599Z,102009.00
2022-10-18T20:01:24.742Z,102016.00
2022-10-18T20:03:52.601Z,102011.00
2022-10-18T20:06:20.917Z,102024.00
2022-10-18T20:08:49.347Z,102019.00
2022-10-18T20:11:19.442Z,102018.00
2022-10-18T20:13:47.377Z,102011.00
2022-10-18T20:16:18.085Z,102007.00
2022-10-18T20:18:47.194Z,102009.00
2022-10-18T20:21:17.025Z,101996.00
2022-10-18T20:23:45.480Z,102018.00
2022-10-18T20:26:18.147Z,102028.00
2022-10-18T20:28:49.125Z,102033.00
2022-10-18T20:31:20.181Z,102030.00
2022-10-18T20:33:48.735Z,102017.00
2022-10-18T20:36:18.594Z,102025.00
2022-10-18T20:38:47.823Z,102021.00
2022-10-18T20:41:17.735Z,102011.00
2022-10-18T20:43:46.210Z,102021.00
2022-10-18T20:46:13.965Z,102013.00
2022-10-18T20:48:43.146Z,102015.00
2022-10-18T20:51:13.416Z,102028.00
2022-10-18T20:53:42.136Z,102023.00
2022-10-18T20:56:11.381Z,102024.00
2022-10-18T20:58:42.200Z,102022.00
2022-10-18T21:01:11.888Z,102023.00
2022-10-18T21:03:41.585Z,102014.00
2022-10-18T21:06:12.366Z,102018.00
2022-10-18T21:08:40.708Z,102023.00
2022-10-18T21:11:09.210Z,102021.00
2022-10-18T21:13:37.379Z,102011.00
2022-10-18T21:16:06.626Z,102019.00
2022-10-18T21:18:36.374Z,102009.00
2022-10-18T21:21:16.482Z,102015.00
2022-10-18T21:23:44.558Z,102013.00
2022-10-18T21:26:15.788Z,102018.00
2022-10-18T21:28:43.967Z,102006.00
2022-10-18T21:31:13.751Z,102019.00
2022-10-18T21:33:42.129Z,102016.00
2022-10-18T21:36:10.456Z,102022.00
2022-10-18T21:38:39.907Z,102011.00
2022-10-18T21:41:11.448Z,102026.00
2022-10-18T21:43:40.833Z,102018.00
2022-10-18T21:46:10.013Z,102021.00
2022-10-18T21:48:38.747Z,102018.00
2022-10-18T21:51:08.613Z,102024.00
2022-10-18T21:53:37.187Z,102030.00
2022-10-18T21:56:09.247Z,102019.00
2022-10-18T21:58:37.798Z,102028.00
2022-10-18T22:01:08.830Z,102019.00
2022-10-18T22:03:36.675Z,102028.00
2022-10-18T22:06:09.361Z,102022.00
2022-10-18T22:08:37.463Z,102020.00
2022-10-18T22:11:05.745Z,102026.00
2022-10-18T22:13:35.209Z,102025.00
2022-10-18T22:16:03.352Z,102025.00
2022-10-18T22:18:31.848Z,102026.00
2022-10-18T22:21:01.552Z,102019.00
2022-10-18T22:23:32.930Z,102022.00
2022-10-18T22:26:04.240Z,102025.00
2022-10-18T22:28:32.316Z,102024.00
2022-10-18T22:31:01.655Z,102008.00
2022-10-18T22:33:29.665Z,102011.00
2022-10-18T22:35:57.615Z,102017.00
2022-10-18T22:38:25.601Z,102016.00
2022-10-18T22:40:53.447Z,102004.00
2022-10-18T22:43:21.221Z,102012.00
2022-10-18T22:45:48.996Z,101997.00
2022-10-18T22:48:18.167Z,102012.00
2022-10-18T22:50:46.201Z,102009.00
2022-10-18T22:53:13.994Z,102001.00
2022-10-18T22:55:41.771Z,102002.00
2022-10-18T22:58:09.552Z,102004.00
2022-10-18T23:00:39.229Z,102006.00
2022-10-18T23:03:07.193Z,101999.00
2022-10-18T23:05:39.719Z,101994.00
2022-10-18T23:08:07.701Z,101985.00
2022-10-18T23:10:37.583Z,101994.00
2022-10-18T23:13:05.631Z,101992.00
2022-10-18T23:15:33.718Z,101994.00
2022-10-18T23:18:02.135Z,101988.00
2022-10-18T23:20:29.996Z,101988.00
2022-10-18T23:22:59.170Z,101981.00
2022-10-18T23:25:27.350Z,101987.00
2022-10-18T23:27:55.185Z,101973.00
2022-10-18T23:30:23.007Z,101977.00
2022-10-18T23:32:50.811Z,101986.00
2022-10-18T23:35:18.794Z,101980.00
2022-10-18T23:37:46.568Z,101985.00
2022-10-18T23:40:15.822Z,101988.00
2022-10-18T23:42:43.560Z,101975.00
2022-10-18T23:45:11.638Z,101986.00
2022-10-18T23:47:39.450Z,101985.00
2022-10-18T23:50:07.955Z,101974.00
2022-10-18T23:52:35.764Z,101981.00
2022-10-18T23:55:03.599Z,101988.00
2022-10-18T23:57:32.934Z,101987.00
